Airderas, Indonesia

3:48 AM WIB on March 24, 2017 (GMT +0700)
Sultan Syarif Kasim Ii | | Change Station

Elev 102 ft 0.47 °N, 101.45 °E | Updated 18 minutes ago

Mostly Cloudy
Mostly Cloudy
73 °F
Feels Like 73 °F
N
4
Wind Variable Wind from NW

Today
High -- | Low -- °F
--% Chance of Precip.
Yesterday
High -- | Low -- °F
Precip. -- in
Pressure 29.77 in
Visibility 5.6 miles
Clouds Mostly Cloudy 3300 ft
Mostly Cloudy 7500 ft
Overcast 14000 ft
Dew Point 73 °F
Humidity 100%
Rainfall 0.00 in
Snow Depth Not available.
6:16 AM 6:23 PM
Waning Crescent, 21% visible
METAR WIBB 232030Z AUTO 32003KT 250V030 9000NDV VCTS RA BKN033 BKN075 OVC140 23/23 Q1008
Pressure 29.77 in
Visibility 5.6 miles
Clouds Mostly Cloudy 3300 ft
Mostly Cloudy 7500 ft
Overcast 14000 ft
Dew Point 73 °F
Humidity 100%
Rainfall 0.00 in
Snow Depth Not available.
6:16 AM 6:23 PM
Waning Crescent, 21% visible
METAR WIBB 232030Z AUTO 32003KT 250V030 9000NDV VCTS RA BKN033 BKN075 OVC140 23/23 Q1008

Get Severe Weather Alerts

Thanks for signing up!

Be on the lookout for a verification email in your inbox.

You'll start receiving the daily forecast at 8 AM.

×

10-Day Weather Forecast

×

Almanac

Astronomy

Mar. 24, 2017 Rise Set
Actual Time
Civil Twilight
Nautical Twilight
Astronomical Twilight
Moon
Length of Visible Light
Length of Day
Tomorrow will be .
, % of the Moon is Illuminated

Today's Extremes

Country Highs Country Lows

Community

WunderPhotos

Upload Photos

1,962,540 photos uploaded!

WunderBlog® & News

Nearby

Air Quality

  Air Quality AQ Index Pollutant
Not available.

Snow Depth

Station Depth Elevation

Earthquake Activity

City Distance Mag. Time & Date
Minimum magnitude displayed is 2.5.

Earthquake Activity

City Distance Mag. Time & Date
Minimum magnitude displayed is 2.5.

Coastal Water Temperatures

Place Temperature

Stations

Nearby Weather Stations

Station Location Temp. Windchill Dew Point Humidity Wind Precip. Elev Updated Type